Time;durP1;ratioP1;P1;durP2;ratioP2;P2;SDS_P1;SDS_P2;PMS_P1;PMS_P2;Temp;Humidity;BMP_temperature;BMP_pressure;BME280_temperature;BME280_humidity;BME280_pressure;Samples;Min_cycle;Max_cycle;Signal;HPM_P1;HPM_P2
2021/03/17 00:01:33;;;;;;;32.97;14.23;;;2.10;99.90;;;;;;5167820;28;20561;-71
2021/03/17 00:04:05;;;;;;;31.13;13.93;;;2.10;99.90;;;;;;5167427;28;20593;-72
2021/03/17 00:06:36;;;;;;;29.60;12.80;;;2.10;99.90;;;;;;5167712;28;20196;-71
2021/03/17 00:09:08;;;;;;;24.47;11.53;;;2.10;99.90;;;;;;5167362;28;20211;-74
2021/03/17 00:11:39;;;;;;;25.97;11.73;;;2.10;99.90;;;;;;5167407;28;20207;-73
2021/03/17 00:14:11;;;;;;;21.43;10.57;;;2.10;99.90;;;;;;5167418;28;20195;-74
2021/03/17 00:16:42;;;;;;;18.13;9.53;;;2.10;99.90;;;;;;5167771;28;20199;-73
2021/03/17 00:19:14;;;;;;;17.67;8.70;;;2.10;99.90;;;;;;5167603;28;20290;-74
2021/03/17 00:21:45;;;;;;;19.30;8.10;;;2.10;99.90;;;;;;5167127;28;20206;-73
2021/03/17 00:24:17;;;;;;;17.67;7.43;;;2.10;99.90;;;;;;5167039;28;20560;-73
2021/03/17 00:26:49;;;;;;;13.97;6.93;;;2.10;99.90;;;;;;5167134;28;20192;-76
2021/03/17 00:29:20;;;;;;;14.93;7.77;;;2.10;99.90;;;;;;5167100;28;20678;-75
2021/03/17 00:31:52;;;;;;;15.87;8.13;;;2.10;99.90;;;;;;5166920;28;20206;-76
2021/03/17 00:34:23;;;;;;;12.73;7.07;;;2.10;99.90;;;;;;5166897;28;20199;-76
2021/03/17 00:36:55;;;;;;;16.50;7.33;;;2.10;99.90;;;;;;5166915;28;20206;-75
2021/03/17 00:39:26;;;;;;;15.10;7.10;;;2.10;99.90;;;;;;5166791;28;20191;-75
2021/03/17 00:41:58;;;;;;;16.27;7.50;;;2.10;99.90;;;;;;5167207;28;20199;-77
2021/03/17 00:44:29;;;;;;;16.77;7.43;;;2.10;99.90;;;;;;5165266;28;20604;-77
2021/03/17 00:47:01;;;;;;;18.63;8.10;;;2.00;99.90;;;;;;5165927;28;20196;-77
2021/03/17 00:49:32;;;;;;;20.63;7.93;;;2.10;99.90;;;;;;5167867;28;20212;-76
2021/03/17 00:52:04;;;;;;;18.83;7.73;;;2.10;99.90;;;;;;5166679;28;20294;-75
2021/03/17 00:54:35;;;;;;;16.83;7.93;;;2.10;99.90;;;;;;5166964;28;20207;-75
2021/03/17 00:57:07;;;;;;;15.23;7.80;;;2.10;99.90;;;;;;5165942;28;20631;-76
2021/03/17 00:59:38;;;;;;;18.17;7.73;;;2.10;99.90;;;;;;5167209;28;20196;-75
2021/03/17 01:02:10;;;;;;;13.23;7.77;;;2.10;99.90;;;;;;5166902;28;20206;-76
2021/03/17 01:04:42;;;;;;;16.03;7.00;;;2.10;99.90;;;;;;5166643;28;20195;-72
2021/03/17 01:07:17;;;;;;;16.90;7.80;;;2.10;99.90;;;;;;5165636;28;20195;-72
2021/03/17 01:09:50;;;;;;;16.17;6.77;;;2.10;99.90;;;;;;5165259;28;20191;-72
2021/03/17 01:12:21;;;;;;;16.83;7.47;;;2.10;99.90;;;;;;5166604;28;20581;-77
2021/03/17 01:14:53;;;;;;;14.10;7.07;;;2.10;99.90;;;;;;5166679;28;20200;-72
2021/03/17 01:17:24;;;;;;;17.30;7.63;;;2.00;99.90;;;;;;5166612;28;20196;-72
2021/03/17 01:19:56;;;;;;;15.10;6.67;;;2.00;99.90;;;;;;5166572;28;20196;-72
2021/03/17 01:22:28;;;;;;;14.43;7.63;;;2.00;99.90;;;;;;5166145;28;20227;-72
2021/03/17 01:24:59;;;;;;;13.30;7.40;;;2.00;99.90;;;;;;5166058;28;20243;-72
2021/03/17 01:27:31;;;;;;;17.47;7.43;;;2.00;99.90;;;;;;5166479;28;20196;-73
2021/03/17 01:30:04;;;;;;;14.13;6.57;;;2.00;99.90;;;;;;5166430;28;20535;-73
2021/03/17 01:32:36;;;;;;;16.53;7.27;;;2.10;99.90;;;;;;5166407;28;20207;-73
2021/03/17 01:35:13;;;;;;;16.03;7.03;;;2.10;99.90;;;;;;5166014;28;20210;-72
2021/03/17 01:37:44;;;;;;;11.67;7.00;;;2.10;99.90;;;;;;5166109;28;20643;-72
2021/03/17 01:40:16;;;;;;;10.33;6.43;;;2.10;99.90;;;;;;5166173;28;20199;-73
2021/03/17 01:42:48;;;;;;;11.67;6.33;;;2.10;99.90;;;;;;5166882;28;20314;-72
2021/03/17 01:45:22;;;;;;;12.37;6.57;;;2.10;99.90;;;;;;5166283;28;20192;-72
2021/03/17 01:47:54;;;;;;;10.13;6.23;;;2.10;99.90;;;;;;5166485;28;20198;-73
2021/03/17 01:50:32;;;;;;;11.33;5.67;;;2.10;99.90;;;;;;5166839;28;20595;-73
2021/03/17 01:53:18;;;;;;;14.10;5.90;;;2.10;99.90;;;;;;5166989;28;20207;-72
2021/03/17 01:55:50;;;;;;;11.50;5.97;;;2.00;99.90;;;;;;5169964;28;20195;-72
2021/03/17 01:58:22;;;;;;;10.23;6.00;;;2.00;99.90;;;;;;5170694;28;20194;-72
2021/03/17 02:00:54;;;;;;;12.70;6.13;;;2.00;99.90;;;;;;5170354;28;20196;-73
2021/03/17 02:03:27;;;;;;;8.47;4.67;;;1.90;99.90;;;;;;5169833;28;20229;-74
2021/03/17 02:09:44;;;;;;;10.37;5.87;;;1.80;99.90;;;;;;5169864;28;20194;-73
2021/03/17 02:12:26;;;;;;;8.13;5.27;;;1.70;99.90;;;;;;5169582;28;20199;-70
2021/03/17 02:15:11;;;;;;;10.87;6.50;;;1.60;99.90;;;;;;5169616;28;20191;-73
2021/03/17 02:17:46;;;;;;;10.60;6.27;;;1.60;99.90;;;;;;5168676;28;20195;-72
2021/03/17 02:20:44;;;;;;;10.77;6.40;;;1.60;99.90;;;;;;5169781;28;20196;-74
2021/03/17 02:27:54;;;;;;;12.67;6.80;;;1.50;99.90;;;;;;5169812;28;20199;-72
2021/03/17 02:30:32;;;;;;;11.80;6.20;;;1.60;99.90;;;;;;5170061;28;20221;-72
2021/03/17 02:33:36;;;;;;;13.37;6.77;;;1.60;99.90;;;;;;5169471;28;20219;-73
2021/03/17 02:36:19;;;;;;;11.53;7.37;;;1.60;99.90;;;;;;5169815;28;20632;-72
2021/03/17 02:38:57;;;;;;;16.70;6.00;;;1.60;99.90;;;;;;5169401;28;20226;-73
2021/03/17 02:41:33;;;;;;;14.87;6.80;;;1.70;99.90;;;;;;5169185;28;20271;-74
2021/03/17 02:44:09;;;;;;;14.77;7.70;;;1.70;99.90;;;;;;5168892;28;20216;-73
2021/03/17 02:46:44;;;;;;;12.00;6.67;;;1.70;99.90;;;;;;5169154;28;20199;-71
2021/03/17 02:49:22;;;;;;;14.43;7.20;;;1.70;99.90;;;;;;5169216;28;20261;-69
2021/03/17 02:51:57;;;;;;;13.80;6.10;;;1.80;99.90;;;;;;5169223;28;20195;-72
2021/03/17 02:54:30;;;;;;;10.07;5.90;;;1.80;99.90;;;;;;5169192;28;20576;-72
2021/03/17 02:57:10;;;;;;;8.00;5.63;;;1.80;99.90;;;;;;5170065;28;20521;-73
2021/03/17 02:59:43;;;;;;;10.30;5.60;;;1.80;99.90;;;;;;5167953;28;20582;-73
2021/03/17 03:02:14;;;;;;;11.27;5.57;;;1.80;99.90;;;;;;5167764;28;20196;-73
2021/03/17 03:04:49;;;;;;;10.17;5.63;;;1.90;99.90;;;;;;5168856;28;20219;-71
2021/03/17 03:07:22;;;;;;;10.53;4.97;;;1.90;99.90;;;;;;5168149;28;20306;-72
2021/03/17 03:09:54;;;;;;;7.37;4.47;;;1.90;99.90;;;;;;5168855;28;20199;-72
2021/03/17 03:12:27;;;;;;;7.47;3.77;;;1.80;99.90;;;;;;5168666;28;20554;-72
2021/03/17 03:14:59;;;;;;;7.93;3.77;;;1.80;99.90;;;;;;5168542;28;20188;-73
2021/03/17 03:17:32;;;;;;;7.40;3.30;;;1.70;99.90;;;;;;5167532;28;20195;-73
2021/03/17 03:20:10;;;;;;;7.10;3.50;;;1.70;99.90;;;;;;5168489;28;20196;-74
2021/03/17 03:22:44;;;;;;;5.43;3.43;;;1.70;99.90;;;;;;5168707;28;20584;-72
2021/03/17 03:25:16;;;;;;;6.50;3.33;;;1.70;99.90;;;;;;5168166;28;20231;-73
2021/03/17 03:27:49;;;;;;;6.37;3.13;;;1.70;99.90;;;;;;5168579;28;20195;-72
2021/03/17 03:30:25;;;;;;;6.43;3.50;;;1.70;99.90;;;;;;5167374;28;20549;-72
2021/03/17 03:32:56;;;;;;;7.53;3.73;;;1.70;99.90;;;;;;5168169;28;20191;-72
2021/03/17 03:35:28;;;;;;;5.33;3.87;;;1.70;99.90;;;;;;5168073;28;20203;-73
2021/03/17 03:38:01;;;;;;;6.20;3.60;;;1.60;99.90;;;;;;5168372;28;20537;-72
2021/03/17 03:40:36;;;;;;;4.93;3.20;;;1.60;99.90;;;;;;5167169;28;20307;-72
2021/03/17 03:43:10;;;;;;;7.93;3.40;;;1.50;99.90;;;;;;5168214;28;20223;-71
2021/03/17 03:45:42;;;;;;;5.53;3.10;;;1.50;99.90;;;;;;5168981;28;20556;-70
2021/03/17 03:48:14;;;;;;;4.43;3.10;;;1.40;99.90;;;;;;5168176;28;20283;-72
2021/03/17 03:50:49;;;;;;;4.53;3.47;;;1.40;99.90;;;;;;5168082;28;20200;-72
2021/03/17 03:53:36;;;;;;;8.13;3.27;;;1.40;99.90;;;;;;5167716;28;20199;-71
2021/03/17 03:56:22;;;;;;;6.80;3.73;;;1.30;99.90;;;;;;5167962;28;20196;-70
2021/03/17 03:58:57;;;;;;;5.43;4.00;;;1.30;99.90;;;;;;5167899;28;20195;-70
2021/03/17 04:01:38;;;;;;;5.63;3.60;;;1.30;99.90;;;;;;5167530;28;20198;-72
2021/03/17 04:04:13;;;;;;;8.17;4.70;;;1.30;99.90;;;;;;5167791;28;20610;-70
2021/03/17 04:10:40;;;;;;;10.70;4.47;;;1.20;99.90;;;;;;5167539;28;20171;-71
2021/03/17 04:13:14;;;;;;;5.87;3.80;;;1.20;99.90;;;;;;5167422;28;20192;-70
2021/03/17 04:15:47;;;;;;;5.80;3.57;;;1.10;99.90;;;;;;5167606;28;20198;-70
2021/03/17 04:18:21;;;;;;;8.20;3.73;;;1.10;99.90;;;;;;5167007;28;20188;-70
2021/03/17 04:20:56;;;;;;;6.40;3.50;;;1.00;99.90;;;;;;5167205;28;20287;-70
2021/03/17 04:27:25;;;;;;;5.47;3.53;;;1.00;99.90;;;;;;5162273;28;20278;-73
2021/03/17 04:29:59;;;;;;;4.43;3.20;;;1.00;99.90;;;;;;5167109;28;20231;-71
2021/03/17 04:32:33;;;;;;;5.83;3.10;;;0.90;99.90;;;;;;5167240;28;20627;-69
2021/03/17 04:35:06;;;;;;;7.33;3.07;;;0.80;99.90;;;;;;5167273;28;20195;-68
2021/03/17 04:41:36;;;;;;;6.70;3.70;;;0.80;99.90;;;;;;5166898;28;20205;-68
2021/03/17 04:44:07;;;;;;;6.10;3.13;;;0.80;99.90;;;;;;5165832;28;20223;-70
2021/03/17 04:46:41;;;;;;;5.13;3.40;;;0.80;99.90;;;;;;5166941;28;20283;-67
2021/03/17 04:49:13;;;;;;;4.83;3.27;;;0.80;99.90;;;;;;5166680;28;20195;-69
2021/03/17 04:51:48;;;;;;;6.40;3.37;;;0.80;99.90;;;;;;5165564;28;20282;-74
2021/03/17 04:58:22;;;;;;;4.30;2.63;;;0.70;99.90;;;;;;5166714;28;20517;-72
2021/03/17 05:00:54;;;;;;;3.07;2.50;;;0.60;99.90;;;;;;5166925;28;20226;-71
2021/03/17 05:03:26;;;;;;;4.40;2.43;;;0.60;99.90;;;;;;5166780;28;20264;-73
2021/03/17 05:05:58;;;;;;;2.87;2.27;;;0.60;99.90;;;;;;5166828;28;20207;-70
2021/03/17 05:08:31;;;;;;;4.03;2.10;;;0.60;99.90;;;;;;5165291;28;20238;-74
2021/03/17 05:11:04;;;;;;;3.17;2.40;;;0.60;99.90;;;;;;5166826;28;20204;-72
2021/03/17 05:13:37;;;;;;;6.60;3.13;;;0.60;99.90;;;;;;5166419;28;20196;-74
2021/03/17 05:16:10;;;;;;;4.23;2.90;;;0.60;99.90;;;;;;5167056;28;20222;-73
2021/03/17 05:18:43;;;;;;;4.07;3.00;;;0.60;99.90;;;;;;5166913;28;20196;-77
2021/03/17 05:21:17;;;;;;;3.60;3.10;;;0.60;99.90;;;;;;5167109;28;20194;-72
2021/03/17 05:23:48;;;;;;;4.03;2.83;;;0.60;99.90;;;;;;5166464;28;20227;-73
2021/03/17 05:26:22;;;;;;;5.23;2.90;;;0.60;99.90;;;;;;5166329;28;20245;-74
2021/03/17 05:28:57;;;;;;;3.63;2.60;;;0.60;99.90;;;;;;5167789;28;20191;-73
2021/03/17 05:31:30;;;;;;;4.10;2.93;;;0.60;99.90;;;;;;5173427;28;20202;-71
2021/03/17 05:34:03;;;;;;;5.70;2.77;;;0.60;99.90;;;;;;5174253;28;20541;-71
2021/03/17 05:36:34;;;;;;;5.23;2.47;;;0.60;99.90;;;;;;5172910;28;20199;-70
2021/03/17 05:39:06;;;;;;;5.40;2.77;;;0.60;99.90;;;;;;5173123;28;20187;-69
2021/03/17 05:41:38;;;;;;;5.27;2.87;;;0.60;99.90;;;;;;5173223;28;20541;-71
2021/03/17 05:44:10;;;;;;;4.67;2.87;;;0.60;99.90;;;;;;5173009;28;20579;-71
2021/03/17 05:46:43;;;;;;;6.40;2.93;;;0.60;99.90;;;;;;5173168;28;20199;-71
2021/03/17 05:49:19;;;;;;;7.10;3.77;;;0.50;99.90;;;;;;5172758;28;20199;-68
2021/03/17 05:51:52;;;;;;;9.97;4.37;;;0.60;99.90;;;;;;5172966;28;20590;-71
2021/03/17 05:54:23;;;;;;;7.13;4.30;;;0.50;99.90;;;;;;5172850;28;20666;-72
2021/03/17 05:56:55;;;;;;;6.20;3.90;;;0.60;99.90;;;;;;5173157;28;20657;-71
2021/03/17 05:59:29;;;;;;;6.63;4.30;;;0.60;99.90;;;;;;5173325;28;20238;-70
2021/03/17 06:02:01;;;;;;;4.97;2.70;;;0.70;99.90;;;;;;5172972;28;20550;-71
2021/03/17 06:04:34;;;;;;;4.47;3.40;;;0.60;99.90;;;;;;5172855;28;20810;-69
2021/03/17 06:07:14;;;;;;;6.00;3.20;;;0.60;99.90;;;;;;5171769;28;20210;-70
2021/03/17 06:09:47;;;;;;;3.63;2.97;;;0.60;99.90;;;;;;5172718;28;20199;-71
2021/03/17 06:12:21;;;;;;;4.13;3.73;;;0.70;99.90;;;;;;5172912;28;20195;-70
2021/03/17 06:14:54;;;;;;;5.47;3.20;;;0.80;99.90;;;;;;5172520;28;20191;-70
2021/03/17 06:17:28;;;;;;;4.53;3.03;;;0.80;99.90;;;;;;5172488;28;20192;-71
2021/03/17 06:20:05;;;;;;;5.23;3.23;;;0.90;99.90;;;;;;5172823;28;20284;-72
2021/03/17 06:26:38;;;;;;;6.13;3.60;;;0.90;99.90;;;;;;5172258;28;20274;-69
2021/03/17 06:29:10;;;;;;;5.03;2.80;;;1.00;99.90;;;;;;5172526;28;20195;-70
2021/03/17 06:31:42;;;;;;;5.30;3.20;;;1.00;99.90;;;;;;5172724;28;20270;-70
2021/03/17 06:34:14;;;;;;;7.17;3.43;;;1.10;99.90;;;;;;5172550;28;20192;-70
2021/03/17 06:36:55;;;;;;;5.13;3.40;;;1.10;99.90;;;;;;5172854;28;20218;-67
2021/03/17 06:43:23;;;;;;;9.90;5.27;;;1.30;99.90;;;;;;5169356;28;20317;-70
2021/03/17 06:46:02;;;;;;;6.70;4.40;;;1.10;99.90;;;;;;5169279;28;20191;-69
2021/03/17 06:48:53;;;;;;;7.70;4.83;;;1.10;99.90;;;;;;5169412;28;20211;-70
2021/03/17 06:51:29;;;;;;;8.03;4.33;;;1.10;99.90;;;;;;5168755;28;20202;-70
2021/03/17 06:54:03;;;;;;;5.87;3.80;;;1.20;99.90;;;;;;5164006;28;20191;-70
2021/03/17 06:56:36;;;;;;;7.77;4.50;;;1.20;99.90;;;;;;5166340;28;20200;-69
2021/03/17 06:59:09;;;;;;;5.00;3.70;;;1.20;99.90;;;;;;5168559;28;20198;-70
2021/03/17 07:01:49;;;;;;;5.67;3.70;;;1.30;99.90;;;;;;5168897;28;20206;-69
2021/03/17 07:04:25;;;;;;;4.43;3.43;;;1.20;99.90;;;;;;5162744;28;20226;-70
2021/03/17 07:07:01;;;;;;;5.80;3.33;;;1.20;99.90;;;;;;5168252;28;20203;-70
2021/03/17 07:09:32;;;;;;;6.73;3.77;;;1.10;99.90;;;;;;5165325;28;20198;-70
2021/03/17 07:12:05;;;;;;;5.07;2.83;;;1.10;99.90;;;;;;5167512;28;20242;-69
2021/03/17 07:14:41;;;;;;;4.60;3.57;;;1.20;99.90;;;;;;5167336;28;20203;-70
2021/03/17 07:17:30;;;;;;;4.97;3.43;;;1.30;99.90;;;;;;5168621;28;20192;-68
2021/03/17 07:20:05;;;;;;;5.50;3.47;;;1.30;99.90;;;;;;5168248;28;20199;-67
2021/03/17 07:22:37;;;;;;;4.33;3.20;;;1.40;99.90;;;;;;5167797;28;20187;-68
2021/03/17 07:25:09;;;;;;;7.30;3.47;;;1.40;99.90;;;;;;5167905;28;20222;-68
2021/03/17 07:27:40;;;;;;;6.53;4.30;;;1.40;99.90;;;;;;5168017;28;20235;-67
2021/03/17 07:30:12;;;;;;;5.90;3.77;;;1.50;99.90;;;;;;5166156;28;20254;-70
2021/03/17 07:33:06;;;;;;;3.07;2.77;;;1.60;99.90;;;;;;5165242;28;20200;-69
2021/03/17 07:35:38;;;;;;;4.67;3.60;;;1.60;99.90;;;;;;5165194;28;20535;-69
2021/03/17 07:42:08;;;;;;;5.77;3.73;;;1.80;99.90;;;;;;5167855;28;20187;-72
2021/03/17 07:44:42;;;;;;;4.53;3.90;;;1.80;99.90;;;;;;5166161;28;20222;-70
2021/03/17 07:47:14;;;;;;;4.07;3.67;;;1.80;99.90;;;;;;5165729;28;20242;-71
2021/03/17 07:49:51;;;;;;;4.73;3.67;;;1.80;99.90;;;;;;5167809;28;20219;-69
2021/03/17 07:52:29;;;;;;;5.27;3.70;;;1.90;99.90;;;;;;5167463;28;20192;-70
2021/03/17 07:58:54;;;;;;;4.33;3.10;;;2.00;99.90;;;;;;5167659;28;20199;-70
2021/03/17 08:01:27;;;;;;;4.43;3.10;;;2.00;99.90;;;;;;5167802;28;20770;-69
2021/03/17 08:04:00;;;;;;;4.70;3.50;;;2.00;99.90;;;;;;5164857;28;20224;-73
2021/03/17 08:06:32;;;;;;;6.03;3.87;;;2.00;99.90;;;;;;5167205;28;20196;-69
2021/03/17 08:09:04;;;;;;;4.83;3.47;;;1.90;99.90;;;;;;5167035;28;20295;-69
2021/03/17 08:11:37;;;;;;;6.80;3.93;;;1.90;99.90;;;;;;5167672;28;20191;-71
2021/03/17 08:14:13;;;;;;;5.93;3.87;;;2.00;99.90;;;;;;5166974;28;20648;-68
2021/03/17 08:16:49;;;;;;;9.50;4.33;;;2.00;99.90;;;;;;5167010;28;20199;-69
2021/03/17 08:19:30;;;;;;;6.27;4.13;;;2.00;99.90;;;;;;5165910;28;20195;-69
2021/03/17 08:22:07;;;;;;;6.77;4.23;;;2.10;99.90;;;;;;5165294;28;20210;-69
2021/03/17 08:24:40;;;;;;;7.00;4.10;;;2.10;99.90;;;;;;5164732;28;20219;-68
2021/03/17 08:27:17;;;;;;;7.17;3.80;;;2.10;99.90;;;;;;5166493;28;20231;-68
2021/03/17 08:30:01;;;;;;;7.30;3.73;;;2.20;99.90;;;;;;5166713;28;20207;-70
2021/03/17 08:32:52;;;;;;;6.90;4.17;;;2.20;99.90;;;;;;5166916;28;20188;-71
2021/03/17 08:35:24;;;;;;;6.63;3.67;;;2.20;99.90;;;;;;5166807;28;20555;-70
2021/03/17 08:37:56;;;;;;;8.03;3.93;;;2.30;99.90;;;;;;5166588;28;20211;-70
2021/03/17 08:40:27;;;;;;;5.13;3.70;;;2.30;99.90;;;;;;5166585;28;20202;-71
2021/03/17 08:43:29;;;;;;;5.30;3.60;;;2.40;99.90;;;;;;5165543;28;20206;-69
2021/03/17 08:46:20;;;;;;;4.40;3.07;;;2.50;99.90;;;;;;5166527;28;20196;-71
2021/03/17 08:49:09;;;;;;;5.20;2.20;;;2.60;99.90;;;;;;5166785;28;20202;-70
2021/03/17 08:51:50;;;;;;;5.53;1.90;;;2.60;99.90;;;;;;5166857;28;20531;-70
2021/03/17 08:58:23;;;;;;;2.17;1.43;;;2.80;99.90;;;;;;5162352;28;20174;-70
2021/03/17 09:01:02;;;;;;;2.77;1.43;;;3.00;99.90;;;;;;5166214;28;20199;-70
2021/03/17 09:03:36;;;;;;;4.13;1.60;;;3.10;99.90;;;;;;5164446;28;20223;-68
2021/03/17 09:06:15;;;;;;;2.93;1.50;;;3.40;99.90;;;;;;5165891;28;20192;-70
2021/03/17 09:08:53;;;;;;;2.57;1.63;;;3.70;99.90;;;;;;5166494;28;20621;-70
2021/03/17 09:11:30;;;;;;;4.37;1.53;;;3.80;99.90;;;;;;5165587;28;20298;-75
2021/03/17 09:14:07;;;;;;;2.43;1.40;;;3.80;99.90;;;;;;5164018;28;20200;-76
2021/03/17 09:17:10;;;;;;;2.17;1.30;;;3.80;99.90;;;;;;5166593;28;20202;-72
2021/03/17 09:19:57;;;;;;;2.93;1.40;;;3.80;99.90;;;;;;5167064;28;20195;-72
2021/03/17 09:22:31;;;;;;;7.17;1.67;;;3.90;99.90;;;;;;5170311;28;20548;-72
2021/03/17 09:25:17;;;;;;;2.20;1.37;;;4.00;99.90;;;;;;5165380;28;20587;-74
2021/03/17 09:28:27;;;;;;;3.47;1.40;;;4.00;99.90;;;;;;5167835;28;20278;-72
2021/03/17 09:31:05;;;;;;;4.87;1.60;;;4.10;99.90;;;;;;5126837;28;20315;-74
2021/03/17 09:33:39;;;;;;;1.83;1.20;;;4.10;99.90;;;;;;5127114;29;20630;-72
2021/03/17 09:36:14;;;;;;;3.97;1.70;;;4.10;99.90;;;;;;5127697;29;20208;-74
2021/03/17 09:42:45;;;;;;;3.53;1.80;;;3.90;99.90;;;;;;5125769;29;20223;-75
2021/03/17 09:45:16;;;;;;;2.90;1.50;;;3.90;99.90;;;;;;5125646;29;20235;-74
2021/03/17 09:47:55;;;;;;;3.17;1.57;;;3.90;99.90;;;;;;5124991;29;20626;-75
2021/03/17 09:50:26;;;;;;;2.97;1.37;;;4.00;99.90;;;;;;5109269;29;20661;-76
2021/03/17 09:52:58;;;;;;;5.00;1.90;;;4.20;99.90;;;;;;5124738;29;20211;-73
2021/03/17 09:59:26;;;;;;;1.40;1.30;;;4.40;99.90;;;;;;5124312;29;20188;-74
2021/03/17 10:02:17;;;;;;;1.47;1.37;;;4.30;99.90;;;;;;5124206;29;20220;-73
2021/03/17 10:04:51;;;;;;;3.87;1.70;;;4.00;99.90;;;;;;5124036;29;20217;-73
2021/03/17 10:07:28;;;;;;;2.23;1.27;;;4.00;99.90;;;;;;5146632;28;20213;-74
2021/03/17 10:10:02;;;;;;;2.07;1.33;;;4.10;99.90;;;;;;5167294;28;20192;-72
2021/03/17 10:12:34;;;;;;;3.57;1.33;;;4.10;99.90;;;;;;5168218;28;20262;-76
2021/03/17 10:15:11;;;;;;;4.37;1.40;;;4.00;99.90;;;;;;5166061;28;20187;-71
2021/03/17 10:17:44;;;;;;;1.90;1.30;;;4.00;99.90;;;;;;5169175;28;20200;-71
2021/03/17 10:20:22;;;;;;;1.93;1.40;;;3.90;99.90;;;;;;5169240;28;20196;-80
2021/03/17 10:23:00;;;;;;;3.27;1.40;;;3.80;99.90;;;;;;5170047;28;20221;-78
2021/03/17 10:25:34;;;;;;;2.23;1.40;;;3.80;99.90;;;;;;5168894;28;20631;-76
2021/03/17 10:28:09;;;;;;;4.43;1.40;;;3.70;99.90;;;;;;5170466;28;20195;-76
2021/03/17 10:30:45;;;;;;;5.67;1.50;;;3.80;99.90;;;;;;5170387;28;20234;-77
2021/03/17 10:33:21;;;;;;;1.83;1.27;;;3.80;99.90;;;;;;5170819;28;20662;-76
2021/03/17 10:35:53;;;;;;;2.40;1.40;;;3.90;99.90;;;;;;5172234;28;20559;-76
2021/03/17 10:38:26;;;;;;;2.70;1.30;;;3.80;99.90;;;;;;5171579;28;20219;-79
2021/03/17 10:40:58;;;;;;;4.73;1.67;;;3.80;99.90;;;;;;5170899;28;20196;-77
2021/03/17 10:43:32;;;;;;;2.03;1.40;;;3.80;99.90;;;;;;5171010;28;20741;-78
2021/03/17 10:46:04;;;;;;;2.47;1.47;;;3.80;99.90;;;;;;5171591;28;20694;-77
2021/03/17 10:48:42;;;;;;;2.27;1.50;;;3.80;99.90;;;;;;5171603;28;20514;-76
2021/03/17 10:51:15;;;;;;;1.57;1.20;;;3.90;99.90;;;;;;5175056;28;20195;-78
2021/03/17 10:53:49;;;;;;;4.13;1.57;;;4.00;99.90;;;;;;5159707;28;20226;-78
2021/03/17 10:56:22;;;;;;;2.73;1.57;;;4.10;99.90;;;;;;5172780;28;20196;-78
2021/03/17 10:58:54;;;;;;;4.90;1.40;;;4.10;99.90;;;;;;5171709;28;20227;-76
2021/03/17 11:01:26;;;;;;;2.37;1.50;;;4.00;99.90;;;;;;5171056;28;20198;-77
2021/03/17 11:04:07;;;;;;;2.33;1.40;;;3.90;99.90;;;;;;5171720;28;20589;-77
2021/03/17 11:06:39;;;;;;;4.13;1.83;;;3.90;99.90;;;;;;5185887;28;20268;-75
2021/03/17 11:13:20;;;;;;;5.27;1.70;;;3.90;99.90;;;;;;5171796;28;20544;-75
2021/03/17 11:16:02;;;;;;;3.20;1.50;;;4.10;99.90;;;;;;5175560;28;20213;-77
2021/03/17 11:18:54;;;;;;;2.10;1.40;;;4.00;99.90;;;;;;5179580;28;20230;-76
2021/03/17 11:21:27;;;;;;;2.43;1.27;;;4.00;99.90;;;;;;5177175;28;20188;-82
2021/03/17 11:28:45;;;;;;;2.13;1.03;;;4.40;99.90;;;;;;5127772;28;20227;-81
2021/03/17 11:31:34;;;;;;;2.53;0.90;;;4.60;99.90;;;;;;5110764;29;20216;-77
2021/03/17 11:34:09;;;;;;;1.20;1.10;;;4.70;99.90;;;;;;5109397;29;20642;-79
2021/03/17 11:36:41;;;;;;;2.07;0.90;;;4.50;99.90;;;;;;5109005;29;20673;-73
2021/03/17 11:39:16;;;;;;;1.27;1.03;;;4.30;99.90;;;;;;5108073;29;20201;-75
2021/03/17 11:45:33;;;;;;;1.53;0.90;;;4.30;99.90;;;;;;5108340;29;20286;-76
2021/03/17 11:48:05;;;;;;;3.03;0.97;;;4.50;99.90;;;;;;5111397;29;20190;-78
2021/03/17 11:50:40;;;;;;;1.93;0.80;;;4.70;99.90;;;;;;5115918;29;20209;-79
2021/03/17 11:53:12;;;;;;;1.90;0.77;;;4.50;99.90;;;;;;5118245;29;20190;-75
2021/03/17 11:55:44;;;;;;;4.23;1.97;;;4.30;99.90;;;;;;5102342;29;20611;-77
2021/03/17 11:58:16;;;;;;;2.97;1.30;;;4.40;99.90;;;;;;5114164;29;20205;-77
2021/03/17 12:00:48;;;;;;;28.27;2.73;;;4.40;99.90;;;;;;5101806;29;20269;-78
2021/03/17 12:03:41;;;;;;;4.10;1.03;;;4.50;99.90;;;;;;5128591;29;20601;-76
2021/03/17 12:06:13;;;;;;;1.87;1.20;;;4.40;99.90;;;;;;5145896;28;20260;-76
2021/03/17 12:08:46;;;;;;;3.73;1.10;;;4.60;99.90;;;;;;5143123;29;20224;-75
2021/03/17 12:11:24;;;;;;;6.77;1.20;;;4.50;99.90;;;;;;5140876;28;20264;-77
2021/03/17 12:13:56;;;;;;;5.13;0.90;;;4.60;99.90;;;;;;5137195;28;20204;-76
2021/03/17 12:16:27;;;;;;;4.23;1.10;;;4.60;99.90;;;;;;5138537;28;20197;-76
2021/03/17 12:18:59;;;;;;;6.63;1.00;;;4.70;99.90;;;;;;5142673;29;20212;-73
2021/03/17 12:21:34;;;;;;;9.33;0.93;;;4.80;99.90;;;;;;5142890;28;20205;-76
2021/03/17 12:24:06;;;;;;;4.20;1.20;;;4.70;99.90;;;;;;5141128;28;20234;-77
2021/03/17 12:26:37;;;;;;;3.30;1.37;;;4.70;99.90;;;;;;5138230;29;20272;-76
2021/03/17 12:29:09;;;;;;;9.60;1.30;;;4.60;99.90;;;;;;5149922;28;20266;-77
2021/03/17 12:31:41;;;;;;;16.07;1.50;;;4.50;99.90;;;;;;5180259;28;20260;-75
2021/03/17 12:34:13;;;;;;;1.83;0.93;;;4.40;99.90;;;;;;5179577;28;20200;-76
2021/03/17 12:36:44;;;;;;;2.23;0.90;;;4.40;99.90;;;;;;5179500;28;20192;-77
2021/03/17 12:39:18;;;;;;;4.57;0.83;;;4.30;99.90;;;;;;5174864;28;20211;-79
2021/03/17 12:41:49;;;;;;;3.73;0.80;;;4.10;99.90;;;;;;5184008;28;20652;-77
2021/03/17 12:44:21;;;;;;;7.73;1.10;;;4.10;99.90;;;;;;5179985;28;20220;-78
2021/03/17 12:46:52;;;;;;;2.97;0.90;;;4.00;99.90;;;;;;5183481;28;20283;-79
2021/03/17 12:49:25;;;;;;;4.30;0.90;;;4.10;99.90;;;;;;5183443;28;20196;-74
2021/03/17 12:51:57;;;;;;;3.23;1.07;;;4.00;99.90;;;;;;5186415;28;20192;-75
2021/03/17 12:54:28;;;;;;;2.33;1.00;;;4.00;99.90;;;;;;5178810;28;20198;-78
2021/03/17 12:57:00;;;;;;;2.20;0.80;;;4.10;99.90;;;;;;5183154;28;20335;-77
2021/03/17 12:59:32;;;;;;;1.20;0.80;;;4.10;99.90;;;;;;5182890;28;20218;-75
2021/03/17 13:02:03;;;;;;;4.70;1.20;;;4.10;99.90;;;;;;5177603;28;20263;-75
2021/03/17 13:04:36;;;;;;;1.73;0.87;;;4.10;99.90;;;;;;5177173;28;20327;-73
2021/03/17 13:07:10;;;;;;;2.60;0.83;;;4.20;99.90;;;;;;5176303;28;20194;-74
2021/03/17 13:09:41;;;;;;;1.67;0.90;;;4.40;99.90;;;;;;5177067;28;20191;-78
2021/03/17 13:12:13;;;;;;;2.20;0.90;;;4.40;99.90;;;;;;5176111;28;20235;-75
2021/03/17 13:14:45;;;;;;;4.60;0.87;;;4.40;99.90;;;;;;5177462;28;20191;-79
2021/03/17 13:17:18;;;;;;;3.43;0.97;;;4.40;99.90;;;;;;5175859;28;20199;-74
2021/03/17 13:19:49;;;;;;;2.33;0.80;;;4.30;99.90;;;;;;5179006;28;20202;-74
2021/03/17 13:22:21;;;;;;;3.33;1.07;;;4.30;99.90;;;;;;5172226;28;20196;-75
2021/03/17 13:24:52;;;;;;;2.33;0.90;;;4.20;99.90;;;;;;5174719;28;20226;-75
2021/03/17 13:27:28;;;;;;;1.80;0.90;;;4.20;99.90;;;;;;5176040;28;20211;-74
2021/03/17 13:29:59;;;;;;;0.80;0.70;;;4.10;99.90;;;;;;5179504;28;20254;-72
2021/03/17 13:32:31;;;;;;;1.53;0.90;;;4.00;99.90;;;;;;5194846;28;20655;-74
2021/03/17 13:35:04;;;;;;;1.23;0.90;;;4.10;99.90;;;;;;5183880;28;20223;-75
2021/03/17 13:37:37;;;;;;;1.83;0.90;;;4.20;99.90;;;;;;5187273;28;20196;-75
2021/03/17 13:43:56;;;;;;;1.90;0.83;;;4.70;99.90;;;;;;5137886;28;20307;-73
2021/03/17 13:46:28;;;;;;;3.10;0.97;;;5.30;99.90;;;;;;5142426;29;20223;-76
2021/03/17 13:49:00;;;;;;;2.00;1.13;;;5.50;99.90;;;;;;5142201;29;20354;-77
2021/03/17 13:51:41;;;;;;;2.77;0.80;;;5.40;99.90;;;;;;5134522;29;20196;-77
2021/03/17 13:54:13;;;;;;;1.33;0.80;;;5.40;99.90;;;;;;5147103;28;20227;-74
2021/03/17 14:00:31;;;;;;;1.20;0.90;;;4.70;99.90;;;;;;5145561;28;20209;-76
2021/03/17 14:03:04;;;;;;;5.37;1.03;;;4.50;99.90;;;;;;5141291;29;20205;-73
2021/03/17 14:05:35;;;;;;;3.27;1.30;;;4.40;99.90;;;;;;5142956;29;20284;-74
2021/03/17 14:08:08;;;;;;;2.20;0.83;;;4.40;99.90;;;;;;5143087;28;20219;-79
2021/03/17 14:10:39;;;;;;;1.00;0.80;;;4.30;99.90;;;;;;5144267;29;20237;-78
2021/03/17 14:13:14;;;;;;;2.50;1.00;;;4.30;99.90;;;;;;5141822;29;20208;-73
2021/03/17 14:15:46;;;;;;;3.20;1.20;;;4.10;99.90;;;;;;5147364;29;20201;-76
2021/03/17 14:18:19;;;;;;;3.50;1.10;;;4.30;99.90;;;;;;5130264;29;20256;-76
2021/03/17 14:20:50;;;;;;;3.63;1.30;;;4.50;99.90;;;;;;5176629;28;20211;-75
2021/03/17 14:23:22;;;;;;;3.73;1.10;;;4.70;99.90;;;;;;5187991;28;20223;-74
2021/03/17 14:25:55;;;;;;;2.83;1.20;;;4.80;99.90;;;;;;5190171;28;20198;-85
2021/03/17 14:28:28;;;;;;;1.73;1.30;;;5.30;99.90;;;;;;5192672;28;20271;-80
2021/03/17 14:31:03;;;;;;;1.40;1.10;;;5.90;99.90;;;;;;5188072;28;20219;-75
2021/03/17 14:33:34;;;;;;;1.43;0.87;;;6.10;99.90;;;;;;5192142;28;20200;-80
2021/03/17 14:36:07;;;;;;;2.43;0.90;;;6.30;99.90;;;;;;5192410;28;20198;-77
2021/03/17 14:38:45;;;;;;;1.57;0.90;;;6.40;99.90;;;;;;5191959;28;20242;-76
2021/03/17 14:41:17;;;;;;;1.40;0.87;;;6.00;99.90;;;;;;5188269;28;20195;-76
2021/03/17 14:43:49;;;;;;;2.50;1.00;;;5.30;99.90;;;;;;5191842;28;20246;-79
2021/03/17 14:46:20;;;;;;;1.20;1.00;;;5.10;99.90;;;;;;5189183;28;20211;-76